createdAt,value
2023-01-11T00:00:39.005Z,6.70
2023-01-11T00:03:08.064Z,6.75
2023-01-11T00:05:39.526Z,6.70
2023-01-11T00:08:09.664Z,6.76
2023-01-11T00:10:41.878Z,6.70
2023-01-11T00:13:10.265Z,6.67
2023-01-11T00:15:42.702Z,6.67
2023-01-11T00:18:11.958Z,6.76
2023-01-11T00:20:42.135Z,6.67
2023-01-11T00:23:16.421Z,6.70
2023-01-11T00:25:46.586Z,6.74
2023-01-11T00:28:14.786Z,6.70
2023-01-11T00:30:42.873Z,6.74
2023-01-11T00:33:12.490Z,6.68
2023-01-11T00:35:46.854Z,6.64
2023-01-11T00:38:38.769Z,6.66
2023-01-11T00:41:21.007Z,6.65
2023-01-11T00:44:06.704Z,6.63
2023-01-11T00:46:52.600Z,6.77
2023-01-11T00:49:22.467Z,6.76
2023-01-11T00:51:50.835Z,6.70
2023-01-11T00:54:20.640Z,6.80
2023-01-11T00:56:50.397Z,6.74
2023-01-11T00:59:19.372Z,6.74
2023-01-11T01:01:47.762Z,6.75
2023-01-11T01:04:15.862Z,6.78
2023-01-11T01:06:43.924Z,6.82
2023-01-11T01:09:12.491Z,6.84
2023-01-11T01:11:44.613Z,6.73
2023-01-11T01:14:28.909Z,6.80
2023-01-11T01:17:02.626Z,6.72
2023-01-11T01:19:32.199Z,6.78
2023-01-11T01:22:01.292Z,6.81
2023-01-11T01:24:31.142Z,6.81
2023-01-11T01:27:01.907Z,6.80
2023-01-11T01:29:31.155Z,6.82
2023-01-11T01:31:59.155Z,6.79
2023-01-11T01:34:27.627Z,6.79
2023-01-11T01:36:55.488Z,6.76
2023-01-11T01:39:23.567Z,6.76
2023-01-11T01:41:52.474Z,6.90
2023-01-11T01:44:58.290Z,6.87
2023-01-11T01:47:36.394Z,6.92
2023-01-11T01:50:13.429Z,6.89
2023-01-11T01:52:42.831Z,6.90
2023-01-11T01:55:16.465Z,6.87
2023-01-11T01:57:48.165Z,6.91
2023-01-11T02:00:20.109Z,6.93
2023-01-11T02:02:53.467Z,7.02
2023-01-11T02:05:22.708Z,6.93
2023-01-11T02:07:51.742Z,6.93
2023-01-11T02:10:21.845Z,6.93
2023-01-11T02:12:55.344Z,7.01
2023-01-11T02:15:32.873Z,7.02
2023-01-11T02:18:01.256Z,6.97
2023-01-11T02:21:04.405Z,6.96
2023-01-11T02:24:09.638Z,7.00
2023-01-11T02:27:08.854Z,7.04
2023-01-11T02:29:49.831Z,7.07
2023-01-11T02:32:28.149Z,7.04
2023-01-11T02:35:07.538Z,7.05
2023-01-11T02:37:48.096Z,7.03
2023-01-11T02:40:26.429Z,7.07
2023-01-11T02:43:17.069Z,7.10
2023-01-11T02:46:02.303Z,7.14
2023-01-11T02:48:36.280Z,7.11
2023-01-11T02:51:08.950Z,7.08
2023-01-11T02:53:42.493Z,7.06
2023-01-11T02:56:18.020Z,7.09
2023-01-11T02:58:49.294Z,7.17
2023-01-11T03:01:22.672Z,7.18
2023-01-11T03:03:51.638Z,7.21
2023-01-11T03:06:24.209Z,7.21
2023-01-11T03:09:13.843Z,7.19
2023-01-11T03:12:11.229Z,7.20
2023-01-11T03:14:58.425Z,7.22
2023-01-11T03:17:47.078Z,7.23
2023-01-11T03:20:23.111Z,7.17
2023-01-11T03:23:04.911Z,7.22
2023-01-11T03:25:45.413Z,7.17
2023-01-11T03:28:22.938Z,7.21
2023-01-11T03:31:00.839Z,7.22
2023-01-11T03:33:41.270Z,7.26
2023-01-11T03:36:18.005Z,7.21
2023-01-11T03:38:54.830Z,7.24
2023-01-11T03:41:27.654Z,7.29
2023-01-11T03:44:01.132Z,7.30
2023-01-11T03:46:32.169Z,7.31
2023-01-11T03:49:06.352Z,7.35
2023-01-11T03:51:42.887Z,7.28
2023-01-11T03:54:14.858Z,7.36
2023-01-11T03:56:50.808Z,7.42
2023-01-11T03:59:19.563Z,7.37
2023-01-11T04:01:50.862Z,7.34
2023-01-11T04:04:22.631Z,7.38
2023-01-11T04:06:51.215Z,7.38
2023-01-11T04:09:19.324Z,7.47
2023-01-11T04:11:49.111Z,7.48
2023-01-11T04:14:17.337Z,7.54
2023-01-11T04:16:50.203Z,7.54
2023-01-11T04:19:21.413Z,7.58
2023-01-11T04:21:50.949Z,7.61
2023-01-11T04:24:19.720Z,7.59
2023-01-11T04:26:50.755Z,7.66
2023-01-11T04:29:18.939Z,7.68
2023-01-11T04:31:46.901Z,7.67
2023-01-11T04:34:15.665Z,7.74
2023-01-11T04:36:45.355Z,7.80
2023-01-11T04:39:14.880Z,7.78
2023-01-11T04:42:00.614Z,7.79
2023-01-11T04:44:29.342Z,7.83
2023-01-11T04:46:58.386Z,7.83
2023-01-11T04:49:27.902Z,7.81
2023-01-11T04:51:59.339Z,7.83
2023-01-11T04:54:28.996Z,7.84
2023-01-11T04:56:56.909Z,7.86
2023-01-11T04:59:29.607Z,7.81
2023-01-11T05:01:57.947Z,7.88
2023-01-11T05:04:26.439Z,7.84
2023-01-11T05:06:59.417Z,7.82
2023-01-11T05:09:34.866Z,7.84
2023-01-11T05:12:07.891Z,7.89
2023-01-11T05:14:35.893Z,7.94
2023-01-11T05:17:04.357Z,7.95
2023-01-11T05:19:32.462Z,7.99
2023-01-11T05:22:03.445Z,8.05
2023-01-11T05:24:36.187Z,8.09
2023-01-11T05:27:06.229Z,8.11
2023-01-11T05:29:34.235Z,8.18
2023-01-11T05:32:02.328Z,8.39
2023-01-11T05:34:31.370Z,8.48
2023-01-11T05:36:59.691Z,8.54
2023-01-11T05:39:28.115Z,8.62
2023-01-11T05:41:57.756Z,8.71
2023-01-11T05:44:45.873Z,8.79
2023-01-11T05:47:15.018Z,8.95
2023-01-11T05:49:42.894Z,8.91
2023-01-11T05:52:12.545Z,8.93
2023-01-11T05:54:40.601Z,8.93
2023-01-11T05:57:13.026Z,8.98
2023-01-11T05:59:41.812Z,9.03
2023-01-11T06:02:10.162Z,9.11
2023-01-11T06:04:38.157Z,9.12
2023-01-11T06:07:06.836Z,9.09
2023-01-11T06:09:34.823Z,9.16
2023-01-11T06:12:02.927Z,9.23
2023-01-11T06:14:39.572Z,9.23
2023-01-11T06:17:07.809Z,9.21
2023-01-11T06:19:35.682Z,9.31
2023-01-11T06:22:07.465Z,9.30
2023-01-11T06:24:37.802Z,9.41
2023-01-11T06:27:05.850Z,9.39
2023-01-11T06:29:35.661Z,9.29
2023-01-11T06:32:05.794Z,9.24
2023-01-11T06:34:36.177Z,9.31
2023-01-11T06:37:06.378Z,9.26
2023-01-11T06:39:35.140Z,9.23
2023-01-11T06:42:04.307Z,9.23
2023-01-11T06:44:33.641Z,9.33
2023-01-11T06:47:02.005Z,9.24
2023-01-11T06:49:33.544Z,9.29
2023-01-11T06:52:01.899Z,9.29
2023-01-11T06:54:30.203Z,9.25
2023-01-11T06:57:12.259Z,9.24
2023-01-11T06:59:41.797Z,9.29
2023-01-11T07:02:11.471Z,9.26
2023-01-11T07:04:41.103Z,9.20
2023-01-11T07:07:09.504Z,9.19
2023-01-11T07:09:40.305Z,9.28
2023-01-11T07:12:09.803Z,9.24
2023-01-11T07:14:39.116Z,9.27
2023-01-11T07:17:09.210Z,9.38
2023-01-11T07:19:37.492Z,9.29
2023-01-11T07:22:07.494Z,9.32
2023-01-11T07:24:38.343Z,9.24
2023-01-11T07:27:06.591Z,9.18
2023-01-11T07:29:34.656Z,9.19
2023-01-11T07:32:04.730Z,9.30
2023-01-11T07:34:34.024Z,9.32
2023-01-11T07:37:04.613Z,9.26
2023-01-11T07:39:43.145Z,9.30
2023-01-11T07:42:30.117Z,9.24
2023-01-11T07:44:59.003Z,9.26
2023-01-11T07:47:31.049Z,9.37
2023-01-11T07:50:00.606Z,9.35
2023-01-11T07:52:33.843Z,9.30
2023-01-11T07:55:04.520Z,9.29
2023-01-11T07:57:36.040Z,9.36
2023-01-11T08:00:04.964Z,9.32
2023-01-11T08:02:40.316Z,9.38
2023-01-11T08:05:09.793Z,9.35
2023-01-11T08:07:42.853Z,9.33
2023-01-11T08:10:17.755Z,9.35
2023-01-11T08:13:05.812Z,9.37
2023-01-11T08:15:38.186Z,9.41
2023-01-11T08:18:06.599Z,9.39
2023-01-11T08:20:37.161Z,9.47
2023-01-11T08:23:06.563Z,9.41
2023-01-11T08:25:38.925Z,9.45
2023-01-11T08:28:08.403Z,9.54
2023-01-11T08:30:37.388Z,9.51
2023-01-11T08:33:06.455Z,9.52
2023-01-11T08:35:39.986Z,9.56
2023-01-11T08:38:08.355Z,9.53
2023-01-11T08:40:37.986Z,9.53
2023-01-11T08:43:06.137Z,9.55
2023-01-11T08:45:34.912Z,9.57
2023-01-11T08:48:03.508Z,9.59
2023-01-11T08:50:33.599Z,9.63
2023-01-11T08:53:02.009Z,9.65
2023-01-11T08:55:30.785Z,9.63
2023-01-11T08:58:01.095Z,9.61
2023-01-11T09:00:29.359Z,9.66
2023-01-11T09:02:57.349Z,9.63
2023-01-11T09:05:25.623Z,9.68
2023-01-11T09:07:55.886Z,9.71
2023-01-11T09:10:27.155Z,9.75
2023-01-11T09:12:58.097Z,9.78
2023-01-11T09:15:29.362Z,9.75
2023-01-11T09:17:57.641Z,9.77
2023-01-11T09:20:25.686Z,9.84
2023-01-11T09:22:54.232Z,9.77
2023-01-11T09:25:22.284Z,9.81
2023-01-11T09:27:52.805Z,9.80
2023-01-11T09:30:24.603Z,9.79
2023-01-11T09:32:55.087Z,9.79
2023-01-11T09:35:23.809Z,9.83
2023-01-11T09:37:54.406Z,9.87
2023-01-11T09:40:26.043Z,9.88
2023-01-11T09:42:59.894Z,9.95
2023-01-11T09:45:32.689Z,9.89
2023-01-11T09:48:13.012Z,9.84
2023-01-11T09:50:45.563Z,9.97
2023-01-11T09:53:22.573Z,10.04
2023-01-11T09:55:52.947Z,10.00
2023-01-11T09:58:38.126Z,9.99
2023-01-11T10:01:14.743Z,10.03
2023-01-11T10:04:11.872Z,10.08
2023-01-11T10:06:55.214Z,10.02
2023-01-11T10:18:34.081Z,10.06
2023-01-11T10:19:18.865Z,10.12
2023-01-11T10:21:46.392Z,10.05
2023-01-11T10:24:25.315Z,10.07
2023-01-11T10:26:58.963Z,10.12
2023-01-11T10:29:57.809Z,10.07
2023-01-11T10:32:54.010Z,10.11
2023-01-11T10:35:46.884Z,10.18
2023-01-11T10:38:43.469Z,10.18
2023-01-11T10:41:26.149Z,10.21
2023-01-11T10:44:06.355Z,10.27
2023-01-11T10:46:39.838Z,10.18
2023-01-11T10:49:49.076Z,10.25
2023-01-11T10:52:30.739Z,10.27
2023-01-11T10:55:03.006Z,10.27
2023-01-11T10:58:01.895Z,10.34
2023-01-11T11:00:36.685Z,10.48
2023-01-11T11:03:45.527Z,10.55
2023-01-11T11:06:30.512Z,10.52
2023-01-11T11:09:09.243Z,10.60
2023-01-11T11:11:52.968Z,10.63
2023-01-11T11:14:31.201Z,10.60
2023-01-11T11:17:11.991Z,10.51
2023-01-11T11:19:41.894Z,10.56
2023-01-11T11:22:12.208Z,10.55
2023-01-11T11:24:45.027Z,10.65
2023-01-11T11:27:23.211Z,10.54
2023-01-11T11:29:58.210Z,10.67
2023-01-11T11:32:31.132Z,10.58
2023-01-11T11:35:00.649Z,10.69
2023-01-11T11:37:34.117Z,10.73
2023-01-11T11:40:03.221Z,10.72
2023-01-11T11:42:33.010Z,10.71
2023-01-11T11:45:18.121Z,10.73
2023-01-11T11:48:04.233Z,10.77
2023-01-11T11:50:44.622Z,10.80
2023-01-11T11:53:31.723Z,10.78
2023-01-11T11:56:07.511Z,10.77
2023-01-11T11:58:42.991Z,10.83
2023-01-11T12:01:29.598Z,10.84
2023-01-11T12:04:02.978Z,10.91
2023-01-11T12:06:33.202Z,11.07
2023-01-11T12:09:05.461Z,11.01
2023-01-11T12:11:37.831Z,11.05
2023-01-11T12:14:19.854Z,11.14
2023-01-11T12:16:48.967Z,11.18
2023-01-11T12:19:36.572Z,11.22
2023-01-11T12:22:13.221Z,11.22
2023-01-11T12:24:42.440Z,11.10
2023-01-11T12:27:29.974Z,11.12
2023-01-11T12:33:15.536Z,11.32
2023-01-11T12:35:52.996Z,11.15
2023-01-11T12:38:34.232Z,11.21
2023-01-11T12:41:13.629Z,11.16
2023-01-11T12:43:55.770Z,11.29
2023-01-11T12:46:35.402Z,11.22
2023-01-11T12:49:20.544Z,11.17
2023-01-11T12:52:03.561Z,11.16
2023-01-11T12:54:51.638Z,11.13
2023-01-11T12:57:28.225Z,11.11
2023-01-11T13:00:14.837Z,11.24
2023-01-11T13:03:03.423Z,11.07
2023-01-11T13:05:44.941Z,11.08
2023-01-11T13:08:22.724Z,11.09
2023-01-11T13:11:01.304Z,11.09
2023-01-11T13:13:36.245Z,11.13
2023-01-11T13:16:17.113Z,11.10
2023-01-11T13:18:53.561Z,11.15
2023-01-11T13:21:31.786Z,11.11
2023-01-11T13:24:05.104Z,11.07
2023-01-11T13:26:38.563Z,10.99
2023-01-11T13:29:12.502Z,11.05
2023-01-11T13:31:42.060Z,11.18
2023-01-11T13:34:18.712Z,11.21
2023-01-11T13:36:56.725Z,11.11
2023-01-11T13:39:33.522Z,11.18
2023-01-11T13:42:05.168Z,11.23
2023-01-11T13:44:42.381Z,11.14
2023-01-11T13:47:16.879Z,11.17
2023-01-11T13:49:53.494Z,11.17
2023-01-11T13:52:33.001Z,11.18
2023-01-11T13:55:14.362Z,11.15
2023-01-11T13:57:54.574Z,11.27
2023-01-11T14:00:31.933Z,11.14
2023-01-11T14:03:11.223Z,11.20
2023-01-11T14:05:49.418Z,11.20
2023-01-11T14:08:36.991Z,11.13
2023-01-11T14:11:14.539Z,11.25
2023-01-11T14:14:11.360Z,11.23
2023-01-11T14:16:54.544Z,11.11
2023-01-11T14:19:29.211Z,11.19
2023-01-11T14:22:06.906Z,11.08
2023-01-11T14:24:41.716Z,11.21
2023-01-11T14:27:33.075Z,11.03
2023-01-11T14:30:27.762Z,10.93
2023-01-11T14:33:21.433Z,10.95
2023-01-11T14:36:14.291Z,10.89
2023-01-11T14:39:01.846Z,10.84
2023-01-11T14:42:09.438Z,10.89
2023-01-11T14:44:57.505Z,10.80
2023-01-11T14:47:44.949Z,10.78
2023-01-11T14:50:24.218Z,10.72
2023-01-11T14:52:54.678Z,10.88
2023-01-11T14:55:29.504Z,10.91
2023-01-11T14:58:17.050Z,10.79
2023-01-11T15:01:10.878Z,10.73
2023-01-11T15:03:47.956Z,10.64
2023-01-11T15:06:21.464Z,10.75
2023-01-11T15:08:53.888Z,10.68
2023-01-11T15:11:39.052Z,10.68
2023-01-11T15:14:30.844Z,10.60
2023-01-11T15:17:19.816Z,10.50
2023-01-11T15:19:53.202Z,10.47
2023-01-11T15:22:30.376Z,10.54
2023-01-11T15:25:02.037Z,10.62
2023-01-11T15:27:35.261Z,10.56
2023-01-11T15:30:06.893Z,10.55
2023-01-11T15:32:37.041Z,10.67
2023-01-11T15:35:34.403Z,10.59
2023-01-11T15:38:13.022Z,10.48
2023-01-11T15:40:43.436Z,10.40
2023-01-11T15:43:41.125Z,10.37
2023-01-11T15:46:55.936Z,10.28
2023-01-11T15:49:53.709Z,10.22
2023-01-11T15:52:55.000Z,10.18
2023-01-11T15:56:10.966Z,10.26
2023-01-11T15:59:14.870Z,10.16
2023-01-11T16:02:22.513Z,10.08
2023-01-11T16:04:54.710Z,10.06
2023-01-11T16:07:29.225Z,10.01
2023-01-11T16:10:14.669Z,10.01
2023-01-11T16:12:56.352Z,9.96
2023-01-11T16:15:35.789Z,9.88
2023-01-11T16:18:15.491Z,10.03
2023-01-11T16:20:46.658Z,9.96
2023-01-11T16:23:20.532Z,9.91
2023-01-11T16:25:55.597Z,9.87
2023-01-11T16:28:23.922Z,9.87
2023-01-11T16:30:58.028Z,9.82
2023-01-11T16:33:31.317Z,9.78
2023-01-11T16:36:13.150Z,9.79
2023-01-11T16:39:00.949Z,9.77
2023-01-11T16:41:36.758Z,9.72
2023-01-11T16:44:10.029Z,9.65
2023-01-11T16:47:11.358Z,9.57
2023-01-11T16:49:42.971Z,9.74
2023-01-11T16:52:39.390Z,9.70
2023-01-11T16:55:32.741Z,9.60
2023-01-11T16:58:03.732Z,9.51
2023-01-11T17:00:37.888Z,9.53
2023-01-11T17:03:19.193Z,9.46
2023-01-11T17:06:10.665Z,9.52
2023-01-11T17:08:41.324Z,9.42
2023-01-11T17:11:24.475Z,9.27
2023-01-11T17:14:18.932Z,9.30
2023-01-11T17:16:49.079Z,9.15
2023-01-11T17:19:22.582Z,9.11
2023-01-11T17:21:55.292Z,9.05
2023-01-11T17:24:26.184Z,9.01
2023-01-11T17:26:58.349Z,9.00
2023-01-11T17:29:31.158Z,8.97
2023-01-11T17:32:02.741Z,8.93
2023-01-11T17:34:34.171Z,8.85
2023-01-11T17:37:10.189Z,8.82
2023-01-11T17:39:40.748Z,8.79
2023-01-11T17:42:29.782Z,8.77
2023-01-11T17:45:18.577Z,8.77
2023-01-11T17:47:52.294Z,8.90
2023-01-11T17:50:29.899Z,8.90
2023-01-11T17:53:13.967Z,8.89
2023-01-11T17:55:52.688Z,8.85
2023-01-11T17:58:26.445Z,8.79
2023-01-11T18:01:14.988Z,8.75
2023-01-11T18:03:44.636Z,8.71
2023-01-11T18:06:14.651Z,8.64
2023-01-11T18:08:50.066Z,8.58
2023-01-11T18:11:27.039Z,8.55
2023-01-11T18:13:58.242Z,8.56
2023-01-11T18:16:26.989Z,8.52
2023-01-11T18:18:56.397Z,8.47
2023-01-11T18:21:53.462Z,8.42
2023-01-11T18:24:44.991Z,8.32
2023-01-11T18:27:26.253Z,8.27
2023-01-11T18:29:58.888Z,8.27
2023-01-11T18:32:31.606Z,8.25
2023-01-11T18:35:00.018Z,8.21
2023-01-11T18:37:30.167Z,8.20
2023-01-11T18:40:01.382Z,8.24
2023-01-11T18:42:32.249Z,8.25
2023-01-11T18:45:00.241Z,8.30
2023-01-11T18:47:29.442Z,8.38
2023-01-11T18:49:58.420Z,8.47
2023-01-11T18:52:29.459Z,8.44
2023-01-11T18:54:58.218Z,8.39
2023-01-11T18:57:27.427Z,8.34
2023-01-11T18:59:58.588Z,8.41
2023-01-11T19:02:29.272Z,8.51
2023-01-11T19:05:02.207Z,8.65
2023-01-11T19:07:30.773Z,8.56
2023-01-11T19:09:59.553Z,8.55
2023-01-11T19:12:29.287Z,8.75
2023-01-11T19:14:57.249Z,8.70
2023-01-11T19:17:27.195Z,8.65
2023-01-11T19:19:55.570Z,8.46
2023-01-11T19:22:26.740Z,8.38
2023-01-11T19:24:55.616Z,8.32
2023-01-11T19:27:24.903Z,8.24
2023-01-11T19:29:57.575Z,8.20
2023-01-11T19:32:27.471Z,8.13
2023-01-11T19:34:58.020Z,8.07
2023-01-11T19:37:27.057Z,8.03
2023-01-11T19:39:59.214Z,7.99
2023-01-11T19:42:30.372Z,7.95
2023-01-11T19:44:59.857Z,7.92
2023-01-11T19:47:28.486Z,7.90
2023-01-11T19:49:58.967Z,7.97
2023-01-11T19:52:27.379Z,7.96
2023-01-11T19:54:56.820Z,8.06
2023-01-11T19:57:25.201Z,8.10
2023-01-11T19:59:53.259Z,7.96
2023-01-11T20:02:22.894Z,7.99
2023-01-11T20:04:54.417Z,7.87
2023-01-11T20:07:23.094Z,7.95
2023-01-11T20:09:52.566Z,7.90
2023-01-11T20:12:22.026Z,7.89
2023-01-11T20:14:54.207Z,7.87
2023-01-11T20:17:24.357Z,7.83
2023-01-11T20:19:55.315Z,7.79
2023-01-11T20:22:25.903Z,7.92
2023-01-11T20:24:53.742Z,7.90
2023-01-11T20:27:21.715Z,7.80
2023-01-11T20:29:49.843Z,7.96
2023-01-11T20:32:39.739Z,7.82
2023-01-11T20:35:08.683Z,7.92
2023-01-11T20:37:36.619Z,7.82
2023-01-11T20:40:05.164Z,7.86
2023-01-11T20:42:34.155Z,7.80
2023-01-11T20:45:04.357Z,7.82
2023-01-11T20:47:32.491Z,7.76
2023-01-11T20:50:03.115Z,7.75
2023-01-11T20:52:32.750Z,7.94
2023-01-11T20:55:08.390Z,7.85
2023-01-11T20:57:38.963Z,7.93
2023-01-11T21:02:42.750Z,7.87
2023-01-11T21:05:11.237Z,7.83
2023-01-11T21:07:43.205Z,7.96
2023-01-11T21:10:12.245Z,7.97
2023-01-11T21:12:40.462Z,7.87
2023-01-11T21:15:10.753Z,7.84
2023-01-11T21:17:41.177Z,7.90
2023-01-11T21:20:10.821Z,7.83
2023-01-11T21:22:39.424Z,7.92
2023-01-11T21:25:12.151Z,7.92
2023-01-11T21:27:40.057Z,7.89
2023-01-11T21:30:09.030Z,7.83
2023-01-11T21:32:39.233Z,7.82
2023-01-11T21:35:07.742Z,7.75
2023-01-11T21:37:35.709Z,7.68
2023-01-11T21:40:03.639Z,7.74
2023-01-11T21:42:33.331Z,7.62
2023-01-11T21:45:01.485Z,7.55
2023-01-11T21:47:29.699Z,7.53
2023-01-11T21:49:57.746Z,7.51
2023-01-11T21:52:25.941Z,7.56
2023-01-11T21:54:54.233Z,7.51
2023-01-11T21:57:22.373Z,7.57
2023-01-11T21:59:51.967Z,7.60
2023-01-11T22:02:20.248Z,7.68
2023-01-11T22:04:48.247Z,7.56
2023-01-11T22:07:17.271Z,7.54
2023-01-11T22:10:03.497Z,7.53
2023-01-11T22:12:34.879Z,7.53
2023-01-11T22:15:08.281Z,7.72
2023-01-11T22:17:38.382Z,7.74
2023-01-11T22:20:07.563Z,7.78
2023-01-11T22:22:35.720Z,7.80
2023-01-11T22:25:04.130Z,7.63
2023-01-11T22:27:32.046Z,7.93
2023-01-11T22:30:00.767Z,7.86
2023-01-11T22:32:31.934Z,7.93
2023-01-11T22:35:00.423Z,7.91
2023-01-11T22:37:29.394Z,7.93
2023-01-11T22:40:00.713Z,7.99
2023-01-11T22:42:29.741Z,8.07
2023-01-11T22:44:58.537Z,8.04
2023-01-11T22:47:26.620Z,8.09
2023-01-11T22:49:56.864Z,8.06
2023-01-11T22:52:25.342Z,8.13
2023-01-11T22:54:54.098Z,8.24
2023-01-11T22:57:22.803Z,8.32
2023-01-11T22:59:51.391Z,8.40
2023-01-11T23:02:19.470Z,8.36
2023-01-11T23:04:47.868Z,8.41
2023-01-11T23:07:17.865Z,8.32
2023-01-11T23:09:46.135Z,8.39
2023-01-11T23:12:31.532Z,8.45
2023-01-11T23:14:59.891Z,8.40
2023-01-11T23:17:27.812Z,8.42
2023-01-11T23:19:56.018Z,8.50
2023-01-11T23:22:25.633Z,8.44
2023-01-11T23:24:53.503Z,8.52
2023-01-11T23:27:21.569Z,8.57
2023-01-11T23:29:49.552Z,8.56
2023-01-11T23:32:17.745Z,8.61
2023-01-11T23:34:45.851Z,8.49
2023-01-11T23:37:13.880Z,8.51
2023-01-11T23:39:43.350Z,8.60
2023-01-11T23:42:26.587Z,8.59
2023-01-11T23:44:55.061Z,8.69
2023-01-11T23:47:22.243Z,8.65
2023-01-11T23:49:51.345Z,8.67
2023-01-11T23:52:20.662Z,8.56
2023-01-11T23:54:51.172Z,8.52
2023-01-11T23:57:20.370Z,8.57
2023-01-11T23:59:49.000Z,8.72
